Time;durP1;ratioP1;P1;durP2;ratioP2;P2;SDS_P1;SDS_P2;PMS_P1;PMS_P2;Temp;Humidity;BMP_temperature;BMP_pressure;BME280_temperature;BME280_humidity;BME280_pressure;Samples;Min_cycle;Max_cycle;Signal;HPM_P1;HPM_P2
2022/11/01 00:01:57;;;;;;;27.55;15.68;;;12.10;99.90;;;;;;5075337;28;20053;-28
2022/11/01 00:04:23;;;;;;;24.20;15.50;;;12.10;99.90;;;;;;5075260;28;20045;-28
2022/11/01 00:06:49;;;;;;;27.08;15.18;;;12.10;99.90;;;;;;5075193;28;20088;-28
2022/11/01 00:09:15;;;;;;;23.23;14.88;;;12.10;99.90;;;;;;5075389;28;20087;-28
2022/11/01 00:11:41;;;;;;;26.33;13.52;;;12.10;99.90;;;;;;5074985;28;20044;-28
2022/11/01 00:14:10;;;;;;;26.40;13.88;;;12.10;99.90;;;;;;5075684;28;20075;-28
2022/11/01 00:16:35;;;;;;;32.63;15.05;;;12.10;99.90;;;;;;5074615;28;20105;-28
2022/11/01 00:19:01;;;;;;;24.48;14.77;;;12.00;99.90;;;;;;5075243;28;20542;-28
2022/11/01 00:21:27;;;;;;;23.27;14.02;;;12.00;99.90;;;;;;5074935;28;20082;-28
2022/11/01 00:23:52;;;;;;;23.77;14.32;;;12.00;99.90;;;;;;5073626;28;20125;-28
2022/11/01 00:26:20;;;;;;;27.77;13.40;;;12.00;99.90;;;;;;5075407;28;20091;-29
2022/11/01 00:28:47;;;;;;;24.35;13.95;;;12.00;99.90;;;;;;5074811;28;20190;-28
2022/11/01 00:31:14;;;;;;;26.05;13.10;;;12.00;99.90;;;;;;5074304;28;20053;-28
2022/11/01 00:33:40;;;;;;;20.02;13.43;;;12.00;99.90;;;;;;5074688;28;20036;-28
2022/11/01 00:36:07;;;;;;;30.05;13.80;;;12.00;99.90;;;;;;5074639;28;20051;-28
2022/11/01 00:38:33;;;;;;;25.27;13.60;;;12.00;99.90;;;;;;5073603;28;20597;-28
2022/11/01 00:40:59;;;;;;;21.60;12.60;;;12.00;99.90;;;;;;5056747;28;20453;-28
2022/11/01 00:43:27;;;;;;;23.70;12.85;;;12.10;99.90;;;;;;5075127;28;20048;-28
2022/11/01 00:45:52;;;;;;;23.17;12.75;;;12.10;99.90;;;;;;5073213;28;20044;-28
2022/11/01 00:48:18;;;;;;;20.50;11.80;;;12.10;99.90;;;;;;5073842;28;20064;-28
2022/11/01 00:50:44;;;;;;;18.85;12.15;;;12.20;99.90;;;;;;5074632;28;20037;-28
2022/11/01 00:53:11;;;;;;;22.73;11.65;;;12.20;99.90;;;;;;5074341;28;20505;-28
2022/11/01 00:55:37;;;;;;;22.58;12.20;;;12.30;99.90;;;;;;5074254;28;20063;-28
2022/11/01 00:58:05;;;;;;;18.73;11.05;;;12.30;99.90;;;;;;5073446;28;20471;-28
2022/11/01 01:00:31;;;;;;;19.67;11.38;;;12.30;99.90;;;;;;5074142;28;20127;-28
2022/11/01 01:02:56;;;;;;;26.70;11.38;;;12.30;99.90;;;;;;5074947;28;20086;-28
2022/11/01 01:05:25;;;;;;;22.17;12.55;;;12.40;99.90;;;;;;5072834;28;20048;-28
2022/11/01 01:07:51;;;;;;;19.92;11.40;;;12.40;99.90;;;;;;5073939;28;20048;-28
2022/11/01 01:10:16;;;;;;;23.42;10.77;;;12.30;99.90;;;;;;5073972;28;20060;-28
2022/11/01 01:12:42;;;;;;;16.90;10.35;;;12.40;99.90;;;;;;5074032;28;20056;-28
2022/11/01 01:15:11;;;;;;;20.00;11.60;;;12.40;99.90;;;;;;5074504;28;20102;-28
2022/11/01 01:17:37;;;;;;;17.77;9.95;;;12.40;99.90;;;;;;5072775;28;20139;-28
2022/11/01 01:20:03;;;;;;;18.23;10.48;;;12.50;99.90;;;;;;5072391;28;20127;-29
2022/11/01 01:22:29;;;;;;;18.92;9.73;;;12.60;99.90;;;;;;5072686;28;20049;-28
2022/11/01 01:24:55;;;;;;;19.02;9.88;;;12.60;99.90;;;;;;5074276;28;20040;-28
2022/11/01 01:27:21;;;;;;;18.45;9.80;;;12.70;99.90;;;;;;5073766;28;20044;-28
2022/11/01 01:29:47;;;;;;;18.60;10.85;;;12.60;99.90;;;;;;5073758;28;20127;-28
2022/11/01 01:32:19;;;;;;;21.95;9.57;;;12.90;99.90;;;;;;5072466;28;20098;-29
2022/11/01 01:34:44;;;;;;;21.00;9.85;;;13.00;99.90;;;;;;5073706;28;20041;-28
2022/11/01 01:37:16;;;;;;;16.05;9.05;;;13.00;99.90;;;;;;5074150;28;20062;-29
2022/11/01 01:39:41;;;;;;;16.25;9.15;;;13.10;99.90;;;;;;5056779;28;20056;-29
2022/11/01 01:42:29;;;;;;;17.13;9.25;;;13.20;99.90;;;;;;5072443;28;20410;-29
2022/11/01 01:44:55;;;;;;;18.15;8.70;;;13.20;99.90;;;;;;5072602;28;20045;-29
2022/11/01 01:47:23;;;;;;;13.93;7.85;;;13.30;99.90;;;;;;5073485;28;20451;-28
2022/11/01 01:49:58;;;;;;;17.40;8.57;;;13.40;99.90;;;;;;5072539;28;20049;-29
2022/11/01 01:52:24;;;;;;;14.80;8.48;;;13.40;99.90;;;;;;5074426;28;20138;-28
2022/11/01 01:54:50;;;;;;;14.35;8.85;;;13.40;99.90;;;;;;5072818;28;20079;-28
2022/11/01 01:57:17;;;;;;;17.27;8.15;;;13.40;99.90;;;;;;5039162;28;20052;-28
2022/11/01 01:59:43;;;;;;;18.55;8.32;;;13.40;99.90;;;;;;5073398;28;20040;-29
2022/11/01 02:02:09;;;;;;;17.15;7.85;;;13.50;99.90;;;;;;5073055;28;20087;-28
2022/11/01 02:04:48;;;;;;;19.80;8.02;;;13.50;99.90;;;;;;5074163;28;20037;-29
2022/11/01 02:07:14;;;;;;;18.40;8.68;;;13.60;99.90;;;;;;5073712;28;20052;-27
2022/11/01 02:09:41;;;;;;;15.70;7.88;;;13.60;99.90;;;;;;5075631;28;20044;-28
2022/11/01 02:12:09;;;;;;;13.73;7.90;;;13.60;99.90;;;;;;5077370;28;20044;-28
2022/11/01 02:14:41;;;;;;;19.80;8.80;;;13.60;99.90;;;;;;5076129;28;20083;-28
2022/11/01 02:17:15;;;;;;;10.25;7.40;;;13.60;99.90;;;;;;5077174;28;20088;-28
2022/11/01 02:20:01;;;;;;;15.95;7.90;;;13.60;99.90;;;;;;5077231;28;20051;-28
2022/11/01 02:22:58;;;;;;;16.48;8.30;;;13.60;99.90;;;;;;5077211;28;20051;-28
2022/11/01 02:25:51;;;;;;;15.05;7.28;;;13.70;99.90;;;;;;5077130;28;20045;-28
2022/11/01 02:28:21;;;;;;;15.88;6.65;;;13.70;99.90;;;;;;5077177;28;20482;-28
2022/11/01 02:31:09;;;;;;;15.27;7.20;;;13.70;99.90;;;;;;5076298;28;20091;-28
2022/11/01 02:34:11;;;;;;;16.50;8.13;;;13.70;99.90;;;;;;5076878;28;20049;-28
2022/11/01 02:36:45;;;;;;;14.13;8.02;;;13.60;99.90;;;;;;5057727;28;20052;-28
2022/11/01 02:39:26;;;;;;;12.60;7.10;;;13.70;99.90;;;;;;5075995;28;20063;-28
2022/11/01 02:42:13;;;;;;;16.23;7.82;;;13.70;99.90;;;;;;5076851;28;20045;-29
2022/11/01 02:44:42;;;;;;;17.88;8.27;;;13.60;99.90;;;;;;5077314;28;20079;-28
2022/11/01 02:47:11;;;;;;;16.13;7.35;;;13.70;99.90;;;;;;5077088;28;20060;-29
2022/11/01 02:49:40;;;;;;;20.70;8.45;;;13.70;99.90;;;;;;5076636;28;20121;-28
2022/11/01 02:52:12;;;;;;;18.48;8.10;;;13.70;99.90;;;;;;5076581;28;20131;-28
2022/11/01 02:54:44;;;;;;;22.20;8.45;;;13.80;99.90;;;;;;5076251;28;20549;-29
2022/11/01 02:57:25;;;;;;;18.83;7.35;;;13.80;99.90;;;;;;5077162;28;20044;-28
2022/11/01 02:59:51;;;;;;;18.08;7.78;;;13.80;99.90;;;;;;5075382;28;20127;-28
2022/11/01 03:02:19;;;;;;;12.98;6.63;;;13.90;99.90;;;;;;5075321;28;20091;-28
2022/11/01 03:04:46;;;;;;;16.55;7.25;;;13.80;99.90;;;;;;5076329;28;20088;-28
2022/11/01 03:07:17;;;;;;;16.13;6.70;;;13.80;99.90;;;;;;5076300;28;20050;-28
2022/11/01 03:09:43;;;;;;;14.77;6.97;;;13.90;99.90;;;;;;5075951;28;20386;-28
2022/11/01 03:12:19;;;;;;;10.30;6.25;;;13.90;99.90;;;;;;5076232;28;20051;-29
2022/11/01 03:14:55;;;;;;;17.92;6.90;;;13.80;99.90;;;;;;5076867;28;20047;-29
2022/11/01 03:17:59;;;;;;;15.07;7.07;;;13.90;99.90;;;;;;5076516;28;20088;-29
2022/11/01 03:20:50;;;;;;;14.57;6.78;;;13.90;99.90;;;;;;5064462;28;20457;-28
2022/11/01 03:23:31;;;;;;;14.55;7.57;;;13.80;99.90;;;;;;5076950;28;20087;-28
2022/11/01 03:25:59;;;;;;;15.38;6.57;;;13.80;99.90;;;;;;5076825;28;20455;-28
2022/11/01 03:28:32;;;;;;;23.38;8.40;;;13.80;99.90;;;;;;5075662;28;20406;-29
2022/11/01 03:31:08;;;;;;;19.85;7.50;;;13.70;99.90;;;;;;5076806;28;20051;-29
2022/11/01 03:33:39;;;;;;;14.93;6.82;;;13.70;99.90;;;;;;5076544;28;20040;-29
2022/11/01 03:36:16;;;;;;;16.20;6.72;;;13.70;99.90;;;;;;5058495;28;20105;-28
2022/11/01 03:38:50;;;;;;;12.80;5.93;;;13.70;99.90;;;;;;5074726;28;20475;-29
2022/11/01 03:41:18;;;;;;;14.98;6.78;;;13.80;99.90;;;;;;5075844;28;20109;-28
2022/11/01 03:43:46;;;;;;;13.32;6.47;;;13.80;99.90;;;;;;5075671;28;20045;-28
2022/11/01 03:46:15;;;;;;;12.38;6.05;;;13.90;99.90;;;;;;5075634;28;20044;-28
2022/11/01 03:48:41;;;;;;;14.93;6.18;;;13.90;99.90;;;;;;5057747;28;20483;-28
2022/11/01 03:51:07;;;;;;;14.60;6.43;;;13.90;99.90;;;;;;5075241;28;20059;-28
2022/11/01 03:53:33;;;;;;;10.30;5.82;;;14.00;99.90;;;;;;5074393;28;20047;-29
2022/11/01 03:56:02;;;;;;;12.40;5.70;;;13.90;99.90;;;;;;5074999;28;20036;-28
2022/11/01 03:58:42;;;;;;;13.48;5.85;;;13.90;99.90;;;;;;5074960;28;20044;-28
2022/11/01 04:01:11;;;;;;;11.38;6.15;;;13.90;99.90;;;;;;5074905;28;20386;-29
2022/11/01 04:03:37;;;;;;;13.15;6.15;;;13.80;99.90;;;;;;5074104;28;20056;-28
2022/11/01 04:06:04;;;;;;;12.50;6.05;;;13.90;99.90;;;;;;5075391;28;20048;-29
2022/11/01 04:08:30;;;;;;;11.23;5.88;;;13.90;99.90;;;;;;5075420;28;20423;-29
2022/11/01 04:10:55;;;;;;;14.95;6.72;;;13.90;99.90;;;;;;5075127;28;20130;-29
2022/11/01 04:13:21;;;;;;;12.93;6.07;;;14.00;99.90;;;;;;5073955;28;20095;-28
2022/11/01 04:21:18;;;;;;;13.63;6.25;;;14.00;99.90;;;;;;5075014;28;20048;-29
2022/11/01 04:23:45;;;;;;;14.77;6.07;;;14.10;99.90;;;;;;5075414;28;20048;-30
2022/11/01 04:26:16;;;;;;;20.70;6.10;;;14.20;99.90;;;;;;5074392;28;20048;-28
2022/11/01 04:28:55;;;;;;;15.02;5.20;;;14.30;99.90;;;;;;5075885;28;20056;-28
2022/11/01 04:31:26;;;;;;;11.77;5.22;;;14.50;99.90;;;;;;5073952;28;20403;-28
2022/11/01 04:33:52;;;;;;;11.40;5.30;;;14.60;99.90;;;;;;5075097;28;20052;-30
2022/11/01 04:36:18;;;;;;;11.45;5.18;;;14.70;99.90;;;;;;5075421;28;20378;-29
2022/11/01 04:38:46;;;;;;;11.98;5.40;;;14.80;99.90;;;;;;5073394;28;20474;-28
2022/11/01 04:41:12;;;;;;;10.88;5.05;;;14.80;99.90;;;;;;5073568;28;20119;-28
2022/11/01 04:43:38;;;;;;;13.48;5.45;;;14.80;99.90;;;;;;5074088;28;20127;-28
2022/11/01 04:46:03;;;;;;;13.02;5.15;;;15.00;99.90;;;;;;5074399;28;20041;-28
2022/11/01 04:48:29;;;;;;;11.32;5.07;;;15.00;99.90;;;;;;5072848;28;20099;-28
2022/11/01 04:50:55;;;;;;;14.57;4.68;;;15.10;99.90;;;;;;5074697;28;20382;-29
2022/11/01 04:53:20;;;;;;;8.25;4.10;;;15.20;99.90;;;;;;5073074;28;20041;-28
2022/11/01 04:55:46;;;;;;;13.52;5.38;;;15.30;99.90;;;;;;5074291;28;20053;-28
2022/11/01 04:58:13;;;;;;;9.07;4.18;;;15.30;99.90;;;;;;5074199;28;20056;-27
2022/11/01 05:00:41;;;;;;;15.15;4.63;;;15.40;99.90;;;;;;5072945;28;20489;-27
2022/11/01 05:03:09;;;;;;;9.18;4.43;;;15.40;99.90;;;;;;5074665;28;20394;-28
2022/11/01 05:05:35;;;;;;;19.35;4.72;;;15.50;99.90;;;;;;5072759;28;20448;-28
2022/11/01 05:08:07;;;;;;;9.60;4.25;;;15.60;99.90;;;;;;5073446;28;20048;-27
2022/11/01 05:10:34;;;;;;;13.50;4.60;;;15.50;99.90;;;;;;5072766;28;20076;-29
2022/11/01 05:13:01;;;;;;;6.13;4.18;;;15.50;99.90;;;;;;5073655;28;20481;-28
2022/11/01 05:15:26;;;;;;;11.25;4.15;;;15.50;99.90;;;;;;5073939;28;20091;-28
2022/11/01 05:17:52;;;;;;;12.20;4.25;;;15.50;99.90;;;;;;5072672;28;20084;-28
2022/11/01 05:20:19;;;;;;;9.13;3.92;;;15.50;99.90;;;;;;5072997;28;20048;-28
2022/11/01 05:22:44;;;;;;;8.45;3.70;;;15.60;99.90;;;;;;5073861;28;20052;-29
2022/11/01 05:25:10;;;;;;;8.68;3.33;;;15.60;99.90;;;;;;5072648;28;20390;-28
2022/11/01 05:27:37;;;;;;;9.30;3.72;;;15.60;99.90;;;;;;5074271;28;20048;-29
2022/11/01 05:30:04;;;;;;;7.50;3.50;;;15.70;99.90;;;;;;5056152;28;20051;-28
2022/11/01 05:32:30;;;;;;;9.68;4.35;;;15.70;99.90;;;;;;5073370;28;20462;-28
2022/11/01 05:34:56;;;;;;;8.07;3.65;;;15.70;99.90;;;;;;5073664;28;20048;-29
2022/11/01 05:37:21;;;;;;;8.75;3.40;;;15.60;99.90;;;;;;5074416;28;20048;-29
2022/11/01 05:39:47;;;;;;;9.73;4.28;;;15.60;99.90;;;;;;5072452;28;20102;-29
2022/11/01 05:42:13;;;;;;;8.35;2.72;;;15.60;99.90;;;;;;5074444;28;20051;-28
2022/11/01 05:44:39;;;;;;;5.68;2.30;;;15.60;99.90;;;;;;5072750;28;20052;-29
2022/11/01 05:47:05;;;;;;;7.32;2.97;;;15.50;99.90;;;;;;5073362;28;20067;-29
2022/11/01 05:49:31;;;;;;;8.77;3.47;;;15.40;99.90;;;;;;5074315;28;20127;-30
2022/11/01 05:51:56;;;;;;;8.23;3.70;;;15.30;99.90;;;;;;5073508;28;20099;-29
2022/11/01 05:54:22;;;;;;;7.30;3.60;;;15.30;99.90;;;;;;5073498;28;20444;-29
2022/11/01 05:56:48;;;;;;;8.13;3.65;;;15.20;99.90;;;;;;5073151;28;20080;-28
2022/11/01 05:59:14;;;;;;;9.00;3.90;;;15.20;99.90;;;;;;5073956;28;20102;-28
2022/11/01 06:01:40;;;;;;;9.10;4.15;;;15.20;99.90;;;;;;5073959;28;20045;-29
2022/11/01 06:04:06;;;;;;;6.97;3.42;;;15.20;99.90;;;;;;5073607;28;20113;-28
2022/11/01 06:06:32;;;;;;;9.40;3.15;;;15.10;99.90;;;;;;5073334;28;20049;-28
2022/11/01 06:08:59;;;;;;;8.98;1.80;;;15.10;99.90;;;;;;5073285;28;20045;-29
2022/11/01 06:11:25;;;;;;;4.88;1.85;;;15.00;99.90;;;;;;5073295;28;20090;-28
2022/11/01 06:13:56;;;;;;;4.18;1.30;;;14.90;99.90;;;;;;5073864;28;20048;-28
2022/11/01 06:16:23;;;;;;;7.82;1.35;;;14.90;1.00;;;;;;5072655;28;20052;-28
2022/11/01 06:18:49;;;;;;;5.93;0.90;;;14.70;99.90;;;;;;5073250;28;20040;-27
2022/11/01 06:21:15;;;;;;;4.13;0.90;;;14.60;1.00;;;;;;5074085;28;20044;-28
2022/11/01 06:23:44;;;;;;;4.63;0.95;;;14.40;1.00;;;;;;5073219;28;20132;-27
2022/11/01 06:26:10;;;;;;;5.97;1.08;;;14.30;99.90;;;;;;5073348;28;20067;-29
2022/11/01 06:28:36;;;;;;;3.33;0.73;;;14.20;1.00;;;;;;5073203;28;20487;-28
2022/11/01 06:31:02;;;;;;;3.08;0.60;;;14.10;1.00;;;;;;5055785;28;20134;-27
2022/11/01 06:33:29;;;;;;;7.10;1.90;;;14.00;1.00;;;;;;5073132;28;20052;-29
2022/11/01 06:35:55;;;;;;;6.03;0.60;;;13.90;1.00;;;;;;5072181;28;20055;-28
2022/11/01 06:38:20;;;;;;;2.45;0.40;;;13.90;99.90;;;;;;5073620;28;20049;-28
2022/11/01 06:40:47;;;;;;;5.50;1.10;;;13.80;1.00;;;;;;5071824;28;20057;-28
2022/11/01 06:43:13;;;;;;;3.58;0.60;;;13.70;93.50;;;;;;5073088;28;20379;-27
2022/11/01 06:45:38;;;;;;;10.23;0.77;;;13.60;99.90;;;;;;5071768;28;20098;-27
2022/11/01 06:48:04;;;;;;;3.70;1.33;;;13.70;99.90;;;;;;5072608;28;20048;-28
2022/11/01 06:50:30;;;;;;;6.70;0.82;;;13.70;99.90;;;;;;5071819;28;20055;-28
2022/11/01 06:52:58;;;;;;;2.88;0.52;;;13.60;99.90;;;;;;5072259;28;20055;-28
2022/11/01 06:55:28;;;;;;;3.35;0.70;;;13.50;99.90;;;;;;5072937;28;20041;-29
2022/11/01 06:58:04;;;;;;;3.63;0.90;;;13.50;99.90;;;;;;5076259;28;20402;-28
2022/11/01 07:00:30;;;;;;;5.47;1.20;;;13.50;99.90;;;;;;5076199;28;20053;-27
2022/11/01 07:03:04;;;;;;;10.27;0.90;;;13.50;99.90;;;;;;5076499;28;20059;-28
2022/11/01 07:05:32;;;;;;;7.97;1.00;;;13.50;1.00;;;;;;5076288;28;20049;-28
2022/11/01 07:07:59;;;;;;;8.30;1.40;;;13.40;1.00;;;;;;5077198;28;20048;-28
2022/11/01 07:10:26;;;;;;;9.38;1.20;;;13.40;99.90;;;;;;5041981;28;20055;-27
2022/11/01 07:13:00;;;;;;;9.55;1.90;;;13.40;99.90;;;;;;5076255;28;20066;-28
2022/11/01 07:15:27;;;;;;;5.93;1.17;;;13.30;91.50;;;;;;5076316;28;20123;-28
2022/11/01 07:18:03;;;;;;;9.80;2.08;;;13.30;1.00;;;;;;5075029;28;20498;-28
2022/11/01 07:20:30;;;;;;;8.82;1.23;;;13.30;99.90;;;;;;5076100;28;20057;-28
2022/11/01 07:23:01;;;;;;;9.55;1.25;;;13.30;99.90;;;;;;5076389;28;20500;-27
2022/11/01 07:25:27;;;;;;;5.55;1.08;;;13.50;1.00;;;;;;5075489;28;20135;-28
2022/11/01 07:27:54;;;;;;;11.10;1.73;;;13.60;99.90;;;;;;5076099;28;20394;-27
2022/11/01 07:30:19;;;;;;;16.33;2.08;;;13.60;99.90;;;;;;5075991;28;20040;-28
2022/11/01 07:32:45;;;;;;;10.68;1.38;;;13.60;1.00;;;;;;5075064;28;20493;-28
2022/11/01 07:35:11;;;;;;;7.68;1.58;;;13.60;99.90;;;;;;5075893;28;20386;-28
2022/11/01 07:37:36;;;;;;;10.90;2.05;;;13.60;99.90;;;;;;5076391;28;20071;-28
2022/11/01 07:40:03;;;;;;;11.98;1.85;;;13.60;99.90;;;;;;5074588;28;20103;-28
2022/11/01 07:42:29;;;;;;;10.45;1.38;;;13.60;99.90;;;;;;5075777;28;20044;-28
2022/11/01 07:44:57;;;;;;;12.98;1.63;;;13.60;99.90;;;;;;5075440;28;20041;-31
2022/11/01 07:47:23;;;;;;;10.73;1.88;;;13.70;99.90;;;;;;5057895;28;20052;-27
2022/11/01 07:49:49;;;;;;;8.13;1.33;;;13.80;99.90;;;;;;5075296;28;20049;-28
2022/11/01 07:52:15;;;;;;;9.98;1.90;;;13.90;99.90;;;;;;5074594;28;20497;-29
2022/11/01 07:54:41;;;;;;;7.95;1.27;;;14.00;99.90;;;;;;5074533;28;20045;-27
2022/11/01 07:57:08;;;;;;;12.60;2.03;;;14.00;48.40;;;;;;5075439;28;20052;-28
2022/11/01 07:59:33;;;;;;;12.70;2.05;;;14.10;99.90;;;;;;5075423;28;20036;-28
2022/11/01 08:01:59;;;;;;;10.10;1.92;;;14.10;99.90;;;;;;5074988;28;20041;-28
2022/11/01 08:04:25;;;;;;;12.95;2.47;;;14.10;86.80;;;;;;5057528;28;20076;-27
2022/11/01 08:06:51;;;;;;;10.98;1.83;;;14.10;94.60;;;;;;5074846;28;20047;-28
2022/11/01 08:09:16;;;;;;;8.80;2.03;;;14.20;99.90;;;;;;5075221;28;20083;-27
2022/11/01 08:11:42;;;;;;;12.20;2.53;;;14.10;99.90;;;;;;5075251;28;20051;-27
2022/11/01 08:14:08;;;;;;;11.20;2.40;;;14.20;87.50;;;;;;5075404;28;20087;-28
2022/11/01 08:16:34;;;;;;;11.55;2.45;;;14.20;30.20;;;;;;5075091;28;20049;-28
2022/11/01 08:19:00;;;;;;;9.32;2.30;;;14.20;99.90;;;;;;5075048;28;20059;-27
2022/11/01 08:21:26;;;;;;;19.85;2.50;;;14.30;99.90;;;;;;5074994;28;20051;-27
2022/11/01 08:23:51;;;;;;;13.25;2.45;;;14.30;1.00;;;;;;5074969;28;20077;-28
2022/11/01 08:26:17;;;;;;;15.75;2.47;;;14.30;99.90;;;;;;5075674;28;20178;-28
2022/11/01 08:28:43;;;;;;;12.02;2.45;;;14.30;1.00;;;;;;5075401;28;20466;-27
2022/11/01 08:31:09;;;;;;;13.27;2.30;;;14.30;1.00;;;;;;5075668;28;20120;-28
2022/11/01 08:33:35;;;;;;;16.33;2.58;;;14.30;89.90;;;;;;5074797;28;20040;-27
2022/11/01 08:36:01;;;;;;;17.30;2.90;;;14.30;1.00;;;;;;5073617;28;20359;-28
2022/11/01 08:38:27;;;;;;;12.07;2.28;;;14.20;83.30;;;;;;5073549;28;20052;-27
2022/11/01 08:40:53;;;;;;;10.52;1.92;;;14.20;1.00;;;;;;5056705;28;20178;-28
2022/11/01 08:43:20;;;;;;;15.80;2.88;;;14.20;1.00;;;;;;5075094;28;20041;-28
2022/11/01 08:45:46;;;;;;;13.93;2.28;;;14.20;99.90;;;;;;5073849;28;20051;-27
2022/11/01 08:48:12;;;;;;;15.65;3.20;;;14.20;1.00;;;;;;5074759;28;20153;-28
2022/11/01 08:50:38;;;;;;;17.17;3.05;;;14.20;99.90;;;;;;5075228;28;20094;-28
2022/11/01 08:53:11;;;;;;;14.82;2.85;;;14.10;99.90;;;;;;5074357;28;20540;-29
2022/11/01 08:55:37;;;;;;;16.50;2.70;;;14.10;99.90;;;;;;5075241;28;20135;-28
2022/11/01 08:58:03;;;;;;;12.73;2.03;;;14.10;99.90;;;;;;5056618;28;20083;-28
2022/11/01 09:00:29;;;;;;;14.18;2.55;;;14.10;99.90;;;;;;5073314;28;20052;-28
2022/11/01 09:02:54;;;;;;;8.73;1.83;;;14.10;99.90;;;;;;5074205;28;20101;-28
2022/11/01 09:05:21;;;;;;;18.80;3.38;;;14.00;99.90;;;;;;5072856;28;20056;-28
2022/11/01 09:07:47;;;;;;;21.90;3.63;;;14.10;1.00;;;;;;5074666;28;20468;-28
2022/11/01 09:10:15;;;;;;;16.88;3.10;;;14.30;1.00;;;;;;5072849;28;20109;-28
2022/11/01 09:12:40;;;;;;;18.35;3.33;;;14.40;1.00;;;;;;5073128;28;20163;-28
2022/11/01 09:15:06;;;;;;;18.30;3.13;;;14.50;99.90;;;;;;5074014;28;20087;-29
2022/11/01 09:17:32;;;;;;;12.35;2.47;;;14.40;99.90;;;;;;5075080;28;20049;-28
2022/11/01 09:19:58;;;;;;;13.40;2.38;;;14.30;99.90;;;;;;5073278;28;20394;-28
2022/11/01 09:22:25;;;;;;;15.52;2.88;;;14.30;99.90;;;;;;5073866;28;20055;-28
2022/11/01 09:24:50;;;;;;;19.20;3.50;;;14.40;99.90;;;;;;5073836;28;20102;-28
2022/11/01 09:27:16;;;;;;;15.57;2.83;;;14.40;99.90;;;;;;5073474;28;20501;-27
2022/11/01 09:29:42;;;;;;;14.27;2.42;;;14.30;99.90;;;;;;5073879;28;20482;-28
2022/11/01 09:32:07;;;;;;;16.85;3.17;;;14.30;1.00;;;;;;5055992;28;20067;-28
2022/11/01 09:34:33;;;;;;;13.75;2.45;;;14.40;99.90;;;;;;5073983;28;20040;-28
2022/11/01 09:36:59;;;;;;;19.17;3.33;;;14.40;1.00;;;;;;5072765;28;20467;-29
2022/11/01 09:39:26;;;;;;;15.25;2.38;;;14.40;1.00;;;;;;5072777;28;20040;-29
2022/11/01 09:42:00;;;;;;;11.60;2.13;;;14.40;1.00;;;;;;5072583;28;20049;-28
2022/11/01 09:44:31;;;;;;;18.85;3.10;;;14.40;1.00;;;;;;5073655;28;20044;-27
2022/11/01 09:47:21;;;;;;;13.75;2.28;;;14.40;1.00;;;;;;5074392;28;20109;-29
2022/11/01 09:49:50;;;;;;;13.60;2.47;;;14.40;7.00;;;;;;5073642;28;20091;-28
2022/11/01 09:52:22;;;;;;;9.68;1.80;;;14.50;12.80;;;;;;5073574;28;20151;-27
2022/11/01 09:54:48;;;;;;;11.85;2.45;;;14.70;1.00;;;;;;5073501;28;20040;-29
2022/11/01 09:57:33;;;;;;;8.93;2.28;;;14.70;99.90;;;;;;5073493;28;20044;-28
2022/11/01 10:00:16;;;;;;;14.70;2.40;;;14.70;1.00;;;;;;5072835;28;20061;-28
2022/11/01 10:03:10;;;;;;;24.95;4.82;;;14.80;99.90;;;;;;5072293;28;20048;-29
2022/11/01 10:05:44;;;;;;;;;;;14.80;69.10;;;;;;5074348;28;20540;-28
2022/11/01 10:08:50;;;;;;;16.15;3.47;;;14.80;99.90;;;;;;5073468;28;19927;-28
2022/11/01 10:11:24;;;;;;;17.70;2.47;;;14.80;99.90;;;;;;5073424;28;20478;-29
2022/11/01 10:14:13;;;;;;;17.52;3.63;;;14.70;99.90;;;;;;5073296;28;20430;-28
2022/11/01 10:16:48;;;;;;;12.82;2.80;;;14.70;99.90;;;;;;5074148;28;20394;-29
2022/11/01 10:19:20;;;;;;;13.77;2.38;;;14.80;1.00;;;;;;5073592;28;20045;-27
2022/11/01 10:21:53;;;;;;;16.65;3.03;;;15.00;99.90;;;;;;5073883;28;20359;-27
2022/11/01 10:24:35;;;;;;;18.25;2.92;;;15.10;99.90;;;;;;5072867;28;20469;-29
2022/11/01 10:27:28;;;;;;;22.58;4.38;;;15.30;1.00;;;;;;5073285;28;20056;-29
2022/11/01 10:30:11;;;;;;;12.50;2.53;;;15.20;99.90;;;;;;5073659;28;20051;-27
2022/11/01 10:32:54;;;;;;;21.73;3.75;;;15.20;99.90;;;;;;5077178;28;20195;-28
2022/11/01 10:35:22;;;;;;;;;;;15.30;99.90;;;;;;5078354;28;20074;-28
2022/11/01 10:37:58;;;;;;;19.67;2.80;;;15.30;99.90;;;;;;5077029;28;20045;-29
2022/11/01 10:40:29;;;;;;;14.20;2.30;;;15.30;1.00;;;;;;5076928;28;20056;-28
2022/11/01 10:42:54;;;;;;;20.73;4.15;;;15.20;99.90;;;;;;5076879;28;20060;-28
2022/11/01 10:45:22;;;;;;;15.50;3.40;;;15.10;1.00;;;;;;5076780;28;20032;-27
2022/11/01 10:47:55;;;;;;;14.75;2.92;;;15.00;1.00;;;;;;5076713;28;20071;-28
2022/11/01 10:50:22;;;;;;;;;;;15.00;24.10;;;;;;5077724;28;20060;-28
2022/11/01 10:52:53;;;;;;;12.90;2.38;;;15.10;1.00;;;;;;5059063;28;19966;-28
2022/11/01 10:55:36;;;;;;;18.70;2.97;;;14.90;99.90;;;;;;5075493;28;20395;-28
2022/11/01 10:58:33;;;;;;;18.10;2.67;;;14.90;1.00;;;;;;5076876;28;20071;-28
2022/11/01 11:01:02;;;;;;;14.30;2.42;;;14.70;12.90;;;;;;5068941;28;20139;-28
2022/11/01 11:03:32;;;;;;;11.90;2.85;;;14.70;96.00;;;;;;5076488;28;20082;-28
2022/11/01 11:06:07;;;;;;;11.13;2.72;;;14.60;99.90;;;;;;5076490;28;20539;-28
2022/11/01 11:08:35;;;;;;;20.77;2.95;;;14.60;1.00;;;;;;5075721;28;20059;-28
2022/11/01 11:11:03;;;;;;;14.30;2.10;;;14.70;99.90;;;;;;5076355;28;20128;-28
2022/11/01 11:13:30;;;;;;;11.82;1.90;;;14.70;99.90;;;;;;5076294;28;20052;-29
2022/11/01 11:16:03;;;;;;;17.73;2.83;;;14.90;99.90;;;;;;5076832;28;20129;-27
2022/11/01 11:18:32;;;;;;;12.25;2.20;;;15.00;99.90;;;;;;5077121;28;20083;-28
2022/11/01 11:21:01;;;;;;;17.58;2.97;;;15.00;1.00;;;;;;5076398;28;20115;-28
2022/11/01 11:23:29;;;;;;;14.40;2.90;;;14.90;99.90;;;;;;5076737;28;20056;-28
2022/11/01 11:26:04;;;;;;;13.13;2.20;;;14.80;1.00;;;;;;5075124;28;20051;-28
2022/11/01 11:28:33;;;;;;;13.65;2.95;;;14.80;99.90;;;;;;5076644;28;20048;-28
2022/11/01 11:31:14;;;;;;;14.15;3.22;;;14.80;99.90;;;;;;5076227;28;20092;-28
2022/11/01 11:33:58;;;;;;;16.30;3.25;;;14.80;99.90;;;;;;5075916;28;20135;-28
2022/11/01 11:36:31;;;;;;;13.93;2.85;;;14.90;99.90;;;;;;5076639;28;20083;-28
2022/11/01 11:38:58;;;;;;;12.45;2.65;;;14.90;99.90;;;;;;5076476;28;20091;-28
2022/11/01 11:41:38;;;;;;;14.77;2.83;;;14.90;99.90;;;;;;5076308;28;20084;-29
2022/11/01 11:44:33;;;;;;;10.93;2.33;;;15.00;99.90;;;;;;5076007;28;20121;-28
2022/11/01 11:46:58;;;;;;;15.65;3.00;;;15.10;90.70;;;;;;5074487;28;20044;-28
2022/11/01 11:49:26;;;;;;;18.17;3.47;;;15.20;99.90;;;;;;5074264;28;20052;-29
2022/11/01 11:51:53;;;;;;;15.40;3.45;;;15.30;99.90;;;;;;5074644;28;20467;-29
2022/11/01 11:54:36;;;;;;;8.88;2.38;;;15.40;99.90;;;;;;5076146;28;20045;-29
2022/11/01 11:57:28;;;;;;;15.35;2.50;;;15.50;99.90;;;;;;5074758;28;20060;-28
2022/11/01 11:59:58;;;;;;;18.52;3.03;;;15.50;1.00;;;;;;5075448;28;20044;-28
2022/11/01 12:02:31;;;;;;;10.55;2.88;;;15.60;99.90;;;;;;5075395;28;20052;-27
2022/11/01 12:05:02;;;;;;;13.80;2.38;;;15.60;84.00;;;;;;5075123;28;20395;-28
2022/11/01 12:07:35;;;;;;;12.70;2.28;;;15.70;99.90;;;;;;5075031;28;20407;-29
2022/11/01 12:10:25;;;;;;;12.63;2.80;;;15.70;1.00;;;;;;5074990;28;20406;-29
2022/11/01 12:12:52;;;;;;;18.52;2.58;;;15.60;1.00;;;;;;5075806;28;20168;-28
2022/11/01 12:15:44;;;;;;;12.07;2.30;;;15.70;66.70;;;;;;5075217;28;20060;-28
2022/11/01 12:18:15;;;;;;;13.95;2.58;;;15.80;99.90;;;;;;5075983;28;20097;-29
2022/11/01 12:20:42;;;;;;;19.73;2.90;;;16.00;1.00;;;;;;5094327;28;20059;-28
2022/11/01 12:23:30;;;;;;;14.15;2.38;;;16.20;1.00;;;;;;5094826;28;20485;-28
2022/11/01 12:25:59;;;;;;;10.65;2.30;;;16.10;99.90;;;;;;5095198;28;20051;-29
2022/11/01 12:28:31;;;;;;;16.52;3.08;;;16.10;1.00;;;;;;5095165;28;20044;-29
2022/11/01 12:31:01;;;;;;;18.92;2.65;;;16.20;1.00;;;;;;5095752;28;20052;-29
2022/11/01 12:33:36;;;;;;;14.77;2.55;;;16.30;99.90;;;;;;5091875;28;20096;-28
2022/11/01 12:36:02;;;;;;;16.05;2.33;;;16.40;99.90;;;;;;5089302;28;20394;-29
2022/11/01 12:38:51;;;;;;;9.93;2.30;;;16.40;99.90;;;;;;5093816;28;20122;-28
2022/11/01 12:41:47;;;;;;;12.27;2.17;;;16.50;36.80;;;;;;5093720;28;20047;-29
2022/11/01 12:44:31;;;;;;;15.10;2.35;;;16.50;34.50;;;;;;5090178;28;20104;-28
2022/11/01 12:47:15;;;;;;;13.35;2.08;;;16.80;99.90;;;;;;5094819;28;20562;-28
2022/11/01 12:50:10;;;;;;;15.25;2.60;;;17.10;99.90;;;;;;5092573;28;20044;-29
2022/11/01 12:52:39;;;;;;;11.70;2.70;;;16.90;1.00;;;;;;5079840;28;20505;-27
2022/11/01 12:55:16;;;;;;;8.35;2.08;;;16.80;1.00;;;;;;5073013;28;20049;-28
2022/11/01 12:57:42;;;;;;;12.57;2.40;;;17.00;15.90;;;;;;5074907;28;20368;-29
2022/11/01 13:00:14;;;;;;;16.65;2.70;;;17.30;95.30;;;;;;5075108;28;20052;-29
2022/11/01 13:03:05;;;;;;;10.95;1.65;;;17.40;99.90;;;;;;5073140;28;20045;-28